Time;durP1;ratioP1;P1;durP2;ratioP2;P2;SDS_P1;SDS_P2;PMS_P1;PMS_P2;Temp;Humidity;BMP_temperature;BMP_pressure;BME280_temperature;BME280_humidity;BME280_pressure;Samples;Min_cycle;Max_cycle;Signal;HPM_P1;HPM_P2
2021/12/12 00:03:20;;;;;;;0.98;0.57;;;;;;;8.53;69.10;102009.16;5075818;27;20501;-84
2021/12/12 00:05:54;;;;;;;0.30;0.30;;;;;;;8.58;68.88;102017.09;5065122;28;20043;-84
2021/12/12 00:08:22;;;;;;;0.20;0.20;;;;;;;8.53;68.94;102003.00;5069729;28;20428;-83
2021/12/12 00:10:53;;;;;;;0.40;0.40;;;;;;;8.59;68.75;102008.31;5055841;28;20503;-84
2021/12/12 00:13:24;;;;;;;0.38;0.38;;;;;;;8.55;68.80;102009.19;5059767;28;20029;-82
2021/12/12 00:15:51;;;;;;;0.17;0.17;;;;;;;8.53;69.14;102011.78;5056185;28;20045;-82
2021/12/12 00:18:18;;;;;;;0.10;0.10;;;;;;;8.52;69.06;101995.94;5053707;28;20037;-81
2021/12/12 00:20:47;;;;;;;1.92;1.75;;;;;;;8.58;69.45;102001.25;5061827;28;20020;-79
2021/12/12 00:23:14;;;;;;;0.20;0.20;;;;;;;8.53;69.67;101992.44;5058612;28;20036;-80
2021/12/12 00:25:44;;;;;;;8.88;1.20;;;;;;;8.59;69.23;101989.81;5059031;28;20033;-84
2021/12/12 00:28:13;;;;;;;0.30;0.30;;;;;;;8.58;68.89;101988.06;5052139;28;20033;-84
2021/12/12 00:30:39;;;;;;;0.10;0.10;;;;;;;8.52;69.89;101981.00;5056645;28;20041;-83
2021/12/12 00:33:06;;;;;;;0.20;0.20;;;;;;;8.57;69.07;101978.34;5051090;28;20029;-82
2021/12/12 00:35:33;;;;;;;0.30;0.30;;;;;;;8.58;69.16;101974.84;5056344;28;20102;-83
2021/12/12 00:38:10;;;;;;;0.15;0.15;;;;;;;8.52;69.85;101974.81;5059893;28;20033;-84
2021/12/12 00:40:41;;;;;;;0.10;0.10;;;;;;;8.57;69.38;101970.44;5062748;28;20506;-82
2021/12/12 00:43:20;;;;;;;0.10;0.10;;;;;;;8.59;69.59;101968.69;5054569;28;20048;-83
2021/12/12 00:45:46;;;;;;;2.40;2.30;;;;;;;8.48;69.86;101968.63;5053062;28;20025;-79
2021/12/12 00:48:12;;;;;;;0.10;0.10;;;;;;;8.47;69.75;101958.91;5054158;28;20044;-81
2021/12/12 00:50:42;;;;;;;0.20;0.20;;;;;;;8.55;69.18;101959.00;5050699;28;20025;-78
2021/12/12 00:53:11;;;;;;;0.10;0.10;;;;;;;8.52;70.13;101958.94;5050287;28;20040;-80
2021/12/12 00:55:41;;;;;;;0.85;0.85;;;;;;;8.58;69.46;101956.34;5049929;28;20025;-84
2021/12/12 00:58:10;;;;;;;0.20;0.20;;;;;;;8.67;69.15;101953.78;5054400;28;20045;-84
2021/12/12 01:00:43;;;;;;;0.13;0.13;;;;;;;8.65;69.36;101960.81;5058001;28;20068;-79
2021/12/12 01:03:19;;;;;;;0.20;0.20;;;;;;;8.68;69.55;101959.94;5052615;28;20063;-79
2021/12/12 01:05:46;;;;;;;0.10;0.10;;;;;;;8.65;69.26;101966.09;5060423;28;20021;-78
2021/12/12 01:10:58;;;;;;;0.10;0.10;;;;;;;8.71;69.80;101971.41;5045297;28;20040;-83
2021/12/12 01:13:25;;;;;;;0.10;0.10;;;;;;;8.72;69.20;101965.25;5040072;28;20075;-83
2021/12/12 01:16:04;;;;;;;1.20;1.17;;;;;;;8.68;70.03;101975.78;5034162;28;20022;-82
2021/12/12 01:18:35;;;;;;;0.82;0.82;;;;;;;8.68;69.33;101966.09;5034966;28;20040;-83
2021/12/12 01:21:11;;;;;;;0.10;0.10;;;;;;;8.73;69.83;101964.38;5029713;28;20034;-81
2021/12/12 01:23:44;;;;;;;0.50;0.50;;;;;;;8.78;69.05;101960.88;5018887;28;20046;-82
2021/12/12 01:26:11;;;;;;;0.20;0.20;;;;;;;8.72;69.34;101957.34;5028191;28;20025;-83
2021/12/12 01:28:43;;;;;;;0.10;0.10;;;;;;;8.77;69.04;101953.81;5031121;28;20499;-81
2021/12/12 01:31:16;;;;;;;0.15;0.15;;;;;;;8.77;69.64;101965.25;5030971;28;20118;-79
2021/12/12 01:33:43;;;;;;;1.88;1.75;;;;;;;8.82;69.13;101960.00;5027614;28;20034;-82
2021/12/12 01:36:26;;;;;;;0.13;0.13;;;;;;;8.83;69.67;101959.13;5025553;28;20024;-81
2021/12/12 01:38:55;;;;;;;8.40;1.40;;;;;;;8.70;69.72;101951.16;5020047;28;20114;-82
2021/12/12 01:41:35;;;;;;;0.40;0.40;;;;;;;8.82;69.34;101962.66;5034162;28;20037;-83
2021/12/12 01:44:09;;;;;;;0.15;0.15;;;;;;;8.76;70.00;101949.41;5039080;28;20124;-83
2021/12/12 01:46:42;;;;;;;0.20;0.20;;;;;;;8.74;70.25;101954.69;5032835;28;20033;-83
2021/12/12 01:52:00;;;;;;;0.20;0.20;;;;;;;8.69;69.57;101952.00;5034889;28;20430;-82
2021/12/12 01:54:42;;;;;;;0.17;0.17;;;;;;;8.82;69.61;101952.97;5030294;28;20033;-84
2021/12/12 01:57:13;;;;;;;0.20;0.20;;;;;;;8.68;70.50;101950.25;5026499;28;20030;-83
2021/12/12 01:59:42;;;;;;;0.52;0.52;;;;;;;8.73;70.32;101952.91;5024797;28;20061;-83
2021/12/12 02:02:16;;;;;;;0.38;0.38;;;;;;;8.64;70.63;101950.22;5018967;28;20043;-82
2021/12/12 02:04:46;;;;;;;0.10;0.10;;;;;;;8.70;70.28;101943.22;5016550;28;20424;-85
2021/12/12 02:07:16;;;;;;;0.35;0.35;;;;;;;8.70;70.69;101932.66;5026729;28;20026;-84
2021/12/12 02:09:44;;;;;;;3.40;2.90;;;;;;;8.64;70.32;101937.91;5010090;28;20389;-82
2021/12/12 02:12:12;;;;;;;0.30;0.30;;;;;;;8.69;70.84;101930.88;5020027;28;20136;-83
2021/12/12 02:14:41;;;;;;;1.08;1.08;;;;;;;8.60;70.64;101936.13;5014897;28;20096;-82
2021/12/12 02:17:22;;;;;;;0.20;0.20;;;;;;;8.76;70.58;101925.63;5005406;28;20078;-83
2021/12/12 02:20:13;;;;;;;0.38;0.38;;;;;;;8.76;70.96;101925.63;4999265;28;20034;-85
2021/12/12 02:36:33;;;;;;;0.28;0.28;;;;;;;8.81;70.82;101934.44;5035409;28;20459;-83
2021/12/12 02:39:01;;;;;;;0.10;0.10;;;;;;;8.73;71.66;101930.03;5030198;28;20026;-83
2021/12/12 02:41:29;;;;;;;0.10;0.10;;;;;;;8.81;71.37;101942.38;5014441;28;20112;-83
2021/12/12 02:44:01;;;;;;;0.20;0.20;;;;;;;8.80;71.12;101936.22;5030097;28;20401;-83
2021/12/12 02:46:33;;;;;;;0.10;0.10;;;;;;;8.86;71.23;101938.00;5032157;28;20492;-83
2021/12/12 02:49:08;;;;;;;0.20;0.20;;;;;;;8.86;71.31;101932.72;5034164;28;20041;-84
2021/12/12 02:51:38;;;;;;;5.05;1.27;;;;;;;8.91;71.67;101920.44;5033468;28;20041;-83
2021/12/12 02:54:06;;;;;;;0.20;0.20;;;;;;;8.83;71.74;101917.72;5034559;28;20025;-82
2021/12/12 02:56:42;;;;;;;0.10;0.10;;;;;;;8.90;71.42;101923.94;5043990;28;20721;-83
2021/12/12 02:59:12;;;;;;;0.10;0.10;;;;;;;8.84;72.16;101926.56;5027979;28;20389;-84
2021/12/12 03:01:46;;;;;;;3.42;3.20;;;;;;;8.98;71.52;101924.84;5026865;28;20033;-83
2021/12/12 03:04:14;;;;;;;0.55;0.55;;;;;;;8.97;71.21;101919.53;5034348;28;20400;-83
2021/12/12 03:06:42;;;;;;;0.30;0.30;;;;;;;8.96;71.84;101921.31;5040320;28;20044;-84
2021/12/12 03:09:15;;;;;;;0.10;0.10;;;;;;;9.02;71.60;101904.59;5039944;28;20037;-84
2021/12/12 03:11:44;;;;;;;0.30;0.30;;;;;;;8.99;71.99;101912.53;5023622;28;20034;-83
2021/12/12 03:14:10;;;;;;;0.17;0.17;;;;;;;9.07;71.57;101916.97;5029576;28;20121;-84
2021/12/12 03:16:38;;;;;;;0.17;0.17;;;;;;;9.05;71.67;101907.25;5039251;28;20056;-84
2021/12/12 03:19:06;;;;;;;0.50;0.50;;;;;;;9.09;71.91;101919.59;5035275;28;20041;-81
2021/12/12 03:21:35;;;;;;;0.20;0.20;;;;;;;9.13;71.43;101923.13;5032715;28;20030;-82
2021/12/12 03:24:06;;;;;;;0.57;0.57;;;;;;;9.14;71.31;101909.91;5029806;28;20124;-83
2021/12/12 03:26:34;;;;;;;0.10;0.10;;;;;;;9.01;72.09;101921.31;5022538;28;20029;-83
2021/12/12 03:29:02;;;;;;;0.52;0.52;;;;;;;9.07;71.63;101908.13;5032146;28;20036;-82
2021/12/12 03:31:34;;;;;;;0.10;0.10;;;;;;;9.07;72.01;101908.13;5029304;28;20095;-82
2021/12/12 03:34:04;;;;;;;0.20;0.20;;;;;;;9.11;72.00;101909.91;5029383;28;20021;-84
2021/12/12 03:36:30;;;;;;;0.90;0.90;;;;;;;9.12;72.09;101908.16;5013583;28;20041;-84
2021/12/12 03:39:00;;;;;;;0.20;0.20;;;;;;;9.20;72.04;101911.72;5015031;28;20029;-83
2021/12/12 03:41:31;;;;;;;0.20;0.20;;;;;;;9.35;71.40;101908.22;5020335;28;20033;-83
2021/12/12 03:44:00;;;;;;;0.20;0.20;;;;;;;9.35;71.56;101909.09;5016186;28;20069;-83
2021/12/12 03:46:27;;;;;;;0.10;0.10;;;;;;;9.24;72.17;101908.19;5018680;28;20034;-84
2021/12/12 03:48:55;;;;;;;0.10;0.10;;;;;;;9.16;72.22;101905.53;5027017;28;20037;-83
2021/12/12 03:51:26;;;;;;;1.45;1.35;;;;;;;9.23;71.95;101906.41;5022148;28;20102;-83
2021/12/12 03:53:54;;;;;;;0.10;0.10;;;;;;;9.26;72.11;101903.78;5016303;28;20042;-84
2021/12/12 03:56:22;;;;;;;0.30;0.30;;;;;;;9.33;71.44;101920.53;5019231;28;20048;-83
2021/12/12 03:58:56;;;;;;;0.20;0.20;;;;;;;9.31;71.95;101917.91;5026360;28;20420;-83
2021/12/12 04:01:34;;;;;;;0.38;0.38;;;;;;;9.33;71.49;101918.81;5024248;28;20034;-82
2021/12/12 04:04:14;;;;;;;0.10;0.10;;;;;;;9.30;71.88;101924.06;5021521;28;20062;-83
2021/12/12 04:06:46;;;;;;;0.20;0.20;;;;;;;9.26;72.44;101932.88;5023029;28;20030;-82
2021/12/12 04:09:32;;;;;;;0.68;0.50;;;;;;;9.38;71.70;101927.63;5020759;22;20043;-81
2021/12/12 04:12:05;;;;;;;0.10;0.10;;;;;;;9.37;71.56;101915.28;4975853;28;20038;-82
2021/12/12 04:14:32;;;;;;;0.10;0.10;;;;;;;9.39;71.46;101929.41;4975805;28;20042;-81
2021/12/12 04:17:02;;;;;;;0.10;0.10;;;;;;;9.34;71.77;101923.19;4992595;28;20035;-83
2021/12/12 04:19:29;;;;;;;0.40;0.40;;;;;;;9.34;71.87;101925.84;4977102;28;20038;-85
2021/12/12 04:21:56;;;;;;;0.40;0.40;;;;;;;9.31;72.13;101924.94;4977221;28;20493;-84
2021/12/12 04:24:27;;;;;;;0.20;0.20;;;;;;;9.40;71.79;101930.28;4977244;28;20050;-81
2021/12/12 04:26:54;;;;;;;0.10;0.10;;;;;;;9.41;71.67;101925.84;4976517;28;20069;-83
2021/12/12 04:29:25;;;;;;;0.20;0.20;;;;;;;9.37;72.11;101923.22;4977483;28;20038;-81
2021/12/12 04:31:55;;;;;;;0.10;0.10;;;;;;;9.37;71.73;101927.59;4977073;28;20117;-82
2021/12/12 04:34:25;;;;;;;0.13;0.13;;;;;;;9.39;72.13;101924.13;4977588;28;20031;-85
2021/12/12 04:36:53;;;;;;;0.85;0.85;;;;;;;9.47;71.41;101924.13;4977417;28;20027;-83
2021/12/12 04:39:25;;;;;;;0.10;0.10;;;;;;;9.44;71.72;101920.59;4977061;28;20027;-83
2021/12/12 04:41:56;;;;;;;0.45;0.45;;;;;;;9.31;72.14;101920.56;4977125;28;20030;-79
2021/12/12 04:44:27;;;;;;;0.88;0.50;;;;;;;9.51;71.56;101922.38;4977228;28;20066;-84
2021/12/12 04:49:58;;;;;;;0.38;0.38;;;;;;;9.57;71.43;101917.09;4976807;28;20430;-83
2021/12/12 04:52:37;;;;;;;0.30;0.30;;;;;;;9.48;72.05;101917.97;4977412;28;20118;-85
2021/12/12 05:00:51;;;;;;;0.30;0.30;;;;;;;9.56;71.67;101931.19;5072986;27;20398;-85
2021/12/12 05:03:57;;;;;;;0.20;0.20;;;;;;;9.64;71.66;101925.91;5073267;28;20472;-84
2021/12/12 05:06:45;;;;;;;0.50;0.50;;;;;;;9.58;72.15;101933.81;5072654;28;20132;-86
2021/12/12 05:09:23;;;;;;;0.77;0.77;;;;;;;9.57;72.18;101929.41;5071737;28;20056;-83
2021/12/12 05:12:12;;;;;;;0.28;0.25;;;;;;;9.53;72.49;101933.81;5071628;28;20414;-85
2021/12/12 05:14:45;;;;;;;0.20;0.20;;;;;;;9.53;72.36;101937.34;5070862;28;20037;-85
2021/12/12 05:17:33;;;;;;;0.10;0.10;;;;;;;9.58;72.06;101939.13;5071901;28;20479;-85
2021/12/12 05:20:05;;;;;;;0.30;0.30;;;;;;;9.58;72.36;101941.75;5071278;28;20526;-85
2021/12/12 05:22:39;;;;;;;0.28;0.28;;;;;;;9.62;72.02;101948.81;5072022;28;20093;-83
2021/12/12 05:25:11;;;;;;;1.30;1.30;;;;;;;9.63;72.19;101948.84;5071609;28;20033;-84
2021/12/12 05:27:38;;;;;;;1.00;1.00;;;;;;;9.59;72.26;101947.06;5071708;28;20037;-85
2021/12/12 05:30:12;;;;;;;0.15;0.15;;;;;;;9.67;72.10;101958.53;5070699;28;20028;-82
2021/12/12 05:32:41;;;;;;;0.10;0.10;;;;;;;9.70;72.06;101958.53;5071225;28;20355;-83
2021/12/12 05:35:10;;;;;;;2.47;0.82;;;;;;;9.79;71.82;101967.38;5071101;28;20048;-85
2021/12/12 05:37:37;;;;;;;0.30;0.30;;;;;;;9.71;72.12;101951.50;5070868;28;20029;-85
2021/12/12 05:40:08;;;;;;;0.10;0.10;;;;;;;9.73;72.26;101955.00;5070621;28;20024;-84
2021/12/12 05:42:35;;;;;;;3.50;1.90;;;;;;;9.71;72.51;101954.16;5070776;28;20033;-85
2021/12/12 05:45:05;;;;;;;0.10;0.10;;;;;;;9.76;72.15;101959.41;5071254;28;20020;-85
2021/12/12 05:47:32;;;;;;;4.38;3.03;;;;;;;9.82;72.18;101959.44;5071437;28;20090;-85
2021/12/12 05:50:00;;;;;;;0.20;0.20;;;;;;;9.89;71.78;101955.91;5070495;28;20028;-85
2021/12/12 05:52:26;;;;;;;2.75;2.53;;;;;;;9.83;72.00;101962.09;5071046;28;20048;-85
2021/12/12 05:54:54;;;;;;;0.15;0.15;;;;;;;9.96;71.85;101967.41;5071014;28;20088;-84
2021/12/12 05:57:25;;;;;;;0.90;0.90;;;;;;;9.99;71.54;101962.09;5070590;28;20039;-84
2021/12/12 05:59:53;;;;;;;7.57;2.10;;;;;;;9.96;71.74;101968.28;5070545;28;20032;-85
2021/12/12 06:02:21;;;;;;;0.57;0.57;;;;;;;9.81;72.59;101962.97;5071023;28;20116;-85
2021/12/12 06:04:48;;;;;;;0.32;0.32;;;;;;;9.95;72.06;101961.22;5071505;28;20479;-84
2021/12/12 06:07:18;;;;;;;1.33;1.33;;;;;;;9.94;72.32;101967.38;5071200;28;20029;-83
2021/12/12 06:09:46;;;;;;;0.13;0.13;;;;;;;9.90;72.12;101973.56;5070297;28;20090;-84
2021/12/12 06:12:14;;;;;;;0.20;0.20;;;;;;;10.02;72.09;101965.63;5057098;28;20128;-84
2021/12/12 06:14:42;;;;;;;0.90;0.90;;;;;;;9.96;72.32;101967.41;5058182;28;20060;-83
2021/12/12 06:17:12;;;;;;;2.55;1.25;;;;;;;9.92;72.72;101977.09;5057620;28;20086;-86
2021/12/12 06:19:40;;;;;;;0.75;0.75;;;;;;;10.11;71.88;101977.13;5057474;28;20036;-85
2021/12/12 06:22:08;;;;;;;0.73;0.35;;;;;;;9.92;72.73;101978.84;5057717;28;20029;-85
2021/12/12 06:24:40;;;;;;;0.75;0.75;;;;;;;10.12;72.06;101978.88;5057879;28;20079;-87
2021/12/12 06:27:17;;;;;;;0.15;0.15;;;;;;;10.09;72.25;101989.47;5057474;28;20048;-85
2021/12/12 06:29:47;;;;;;;1.27;0.52;;;;;;;10.16;72.06;101975.34;5057560;28;20021;-85
2021/12/12 06:32:13;;;;;;;0.47;0.47;;;;;;;10.03;72.51;101980.66;5056636;28;20029;-85
2021/12/12 06:34:40;;;;;;;0.20;0.20;;;;;;;10.06;72.52;101974.47;5056949;28;20025;-78
2021/12/12 06:37:07;;;;;;;0.20;0.20;;;;;;;10.06;72.35;101981.53;5057196;28;20021;-81
2021/12/12 06:39:34;;;;;;;0.10;0.10;;;;;;;10.19;72.34;101981.53;5057209;28;20048;-83
2021/12/12 06:42:02;;;;;;;0.30;0.30;;;;;;;10.22;72.27;101988.59;5055801;28;20037;-87
2021/12/12 06:44:29;;;;;;;0.52;0.52;;;;;;;10.19;72.45;101986.84;5056945;28;20024;-81
2021/12/12 06:46:56;;;;;;;0.40;0.40;;;;;;;10.23;72.44;101977.13;5057171;28;20120;-86
2021/12/12 06:49:23;;;;;;;0.65;0.65;;;;;;;10.18;72.68;101984.16;5056580;28;20036;-85
2021/12/12 06:51:56;;;;;;;4.90;3.53;;;;;;;10.27;72.38;101984.19;5057239;28;20032;-81
2021/12/12 06:54:26;;;;;;;1.15;1.15;;;;;;;10.35;72.37;101982.41;5057403;28;20025;-86
2021/12/12 06:56:58;;;;;;;0.60;0.60;;;;;;;10.36;72.06;101978.88;5056664;28;20025;-87
2021/12/12 06:59:28;;;;;;;0.50;0.50;;;;;;;10.31;72.40;101991.22;5055501;28;20198;-86
2021/12/12 07:01:55;;;;;;;0.80;0.80;;;;;;;10.44;72.13;101988.59;5055951;28;20041;-85
2021/12/12 07:04:23;;;;;;;5.40;1.38;;;;;;;10.40;72.01;101986.84;5056157;28;20092;-86
2021/12/12 07:06:57;;;;;;;0.65;0.65;;;;;;;10.38;72.54;101991.25;5056024;28;20112;-86
2021/12/12 07:09:25;;;;;;;0.30;0.30;;;;;;;10.40;72.17;101989.50;5057341;28;20036;-86
2021/12/12 07:11:52;;;;;;;1.50;1.42;;;;;;;10.44;72.56;101997.47;5054884;28;20033;-87
2021/12/12 07:14:18;;;;;;;0.10;0.10;;;;;;;10.36;72.86;101989.50;5056963;28;20021;-86
2021/12/12 07:16:45;;;;;;;0.10;0.10;;;;;;;10.38;72.58;101992.16;5057012;28;20032;-87
2021/12/12 07:19:16;;;;;;;1.55;1.55;;;;;;;10.51;72.36;102000.97;5056719;28;20128;-87
2021/12/12 07:21:44;;;;;;;3.85;0.95;;;;;;;10.54;72.25;101998.31;5056033;28;20078;-84
2021/12/12 07:24:11;;;;;;;0.70;0.70;;;;;;;10.36;72.98;102002.72;5056508;28;20025;-86
2021/12/12 07:26:37;;;;;;;15.43;2.80;;;;;;;10.52;72.62;102000.09;5056303;28;20029;-81
2021/12/12 07:29:04;;;;;;;0.17;0.17;;;;;;;10.51;72.42;102007.13;5055796;28;20506;-82
2021/12/12 07:31:36;;;;;;;1.42;1.40;;;;;;;10.56;72.24;101995.66;5055312;28;20033;-85
2021/12/12 07:34:07;;;;;;;0.20;0.20;;;;;;;10.57;72.34;102016.88;5056627;28;20025;-86
2021/12/12 07:36:36;;;;;;;0.90;0.90;;;;;;;10.54;72.65;102013.34;5056121;28;20063;-85
2021/12/12 07:39:09;;;;;;;1.13;1.13;;;;;;;10.63;72.46;102024.81;5055897;28;20064;-87
2021/12/12 07:41:37;;;;;;;4.38;3.65;;;;;;;10.48;73.06;102016.84;5056324;28;20029;-88
2021/12/12 07:44:07;;;;;;;0.77;0.77;;;;;;;10.65;72.27;102012.44;5056406;28;20021;-87
2021/12/12 07:46:34;;;;;;;0.82;0.80;;;;;;;10.56;72.87;102023.03;5056755;28;20086;-86
2021/12/12 07:49:01;;;;;;;1.13;1.13;;;;;;;10.53;72.97;102033.66;5056360;28;20470;-83
2021/12/12 07:51:28;;;;;;;0.20;0.20;;;;;;;10.49;73.30;102016.88;5055193;28;20033;-87
2021/12/12 07:53:57;;;;;;;0.95;0.95;;;;;;;10.66;72.75;102018.63;5055725;28;20028;-85
2021/12/12 07:56:27;;;;;;;0.20;0.20;;;;;;;10.63;72.85;102024.81;5055776;28;20462;-86
2021/12/12 07:58:55;;;;;;;0.20;0.20;;;;;;;10.72;72.79;102023.03;5053792;28;20037;-87
2021/12/12 08:01:22;;;;;;;8.45;1.73;;;;;;;10.58;73.05;102034.53;5055992;28;20032;-88
2021/12/12 08:03:50;;;;;;;5.82;1.85;;;;;;;10.66;73.17;102029.22;5055247;28;20078;-88
2021/12/12 08:06:16;;;;;;;4.63;0.80;;;;;;;10.71;73.00;102045.13;5055030;28;20037;-87
2021/12/12 08:08:44;;;;;;;0.30;0.30;;;;;;;10.72;72.40;102033.66;5056474;28;20121;-87
2021/12/12 08:11:15;;;;;;;0.90;0.82;;;;;;;10.73;72.55;102046.00;5058483;28;20033;-85
2021/12/12 08:13:41;;;;;;;0.57;0.57;;;;;;;10.67;73.16;102041.59;5056478;28;20336;-83
2021/12/12 08:16:09;;;;;;;1.27;1.27;;;;;;;10.69;72.95;102047.75;5055433;28;20063;-86
2021/12/12 08:18:39;;;;;;;0.17;0.17;;;;;;;10.78;72.59;102054.81;5054672;28;20037;-83
2021/12/12 08:21:07;;;;;;;2.72;2.28;;;;;;;10.65;73.57;102054.84;5055700;28;20032;-84
2021/12/12 08:23:34;;;;;;;0.57;0.57;;;;;;;10.78;72.75;102060.13;5055255;28;20112;-86
2021/12/12 08:26:02;;;;;;;0.75;0.75;;;;;;;10.91;72.78;102056.56;5069778;28;20061;-80
2021/12/12 08:28:30;;;;;;;3.22;3.00;;;;;;;10.88;72.82;102060.97;5054626;28;20029;-86
2021/12/12 08:30:57;;;;;;;0.17;0.17;;;;;;;10.87;72.89;102065.41;5054987;28;20025;-79
2021/12/12 08:33:24;;;;;;;0.10;0.10;;;;;;;10.88;72.88;102064.53;5054234;28;20445;-82
2021/12/12 08:35:50;;;;;;;0.40;0.40;;;;;;;10.95;72.73;102078.66;5055525;28;20384;-87
2021/12/12 08:38:17;;;;;;;0.50;0.50;;;;;;;10.87;73.09;102067.19;5055384;28;20031;-82
2021/12/12 08:40:48;;;;;;;0.75;0.75;;;;;;;10.96;72.62;102068.03;5052132;22;20387;-84
2021/12/12 08:43:19;;;;;;;0.65;0.65;;;;;;;10.98;72.66;102070.72;5033639;28;20056;-84
2021/12/12 08:45:52;;;;;;;1.50;1.40;;;;;;;11.07;72.81;102069.81;5033395;28;20104;-83
2021/12/12 08:48:22;;;;;;;0.75;0.75;;;;;;;10.94;73.28;102069.84;5032127;28;20029;-86
2021/12/12 08:50:52;;;;;;;0.30;0.30;;;;;;;11.03;72.80;102068.03;5032823;28;20021;-83
2021/12/12 08:53:19;;;;;;;1.30;1.30;;;;;;;10.99;72.91;102076.00;5031673;28;20033;-84
2021/12/12 08:55:49;;;;;;;0.17;0.17;;;;;;;11.08;72.99;102074.19;5033246;28;20111;-84
2021/12/12 08:58:21;;;;;;;0.98;0.98;;;;;;;11.11;72.88;102082.16;5033196;28;20029;-84
2021/12/12 09:03:40;;;;;;;1.23;1.15;;;;;;;11.17;72.73;102090.97;5111727;27;20375;-83
2021/12/12 09:06:09;;;;;;;0.32;0.32;;;;;;;11.19;73.14;102098.97;5111669;28;20374;-82
2021/12/12 09:08:48;;;;;;;2.38;2.28;;;;;;;11.36;72.58;102100.69;5110895;28;20036;-84
2021/12/12 09:11:37;;;;;;;0.20;0.20;;;;;;;11.30;72.32;102097.16;5110922;28;20027;-83
2021/12/12 09:16:49;;;;;;;0.20;0.20;;;;;;;11.29;73.11;102103.34;5090784;27;20389;-83
2021/12/12 09:19:25;;;;;;;2.70;0.95;;;;;;;11.38;72.89;102109.53;5064882;28;20033;-83
2021/12/12 09:22:15;;;;;;;0.20;0.20;;;;;;;11.51;72.44;102105.06;5050252;28;20048;-84
2021/12/12 09:24:58;;;;;;;0.65;0.65;;;;;;;11.43;72.72;102113.91;5050109;28;20043;-84
2021/12/12 09:27:36;;;;;;;0.15;0.15;;;;;;;11.45;72.51;102119.22;5051128;28;20033;-84
2021/12/12 09:33:12;;;;;;;0.47;0.47;;;;;;;11.67;72.54;102111.19;5090825;27;20389;-84
2021/12/12 09:38:27;;;;;;;1.15;1.05;;;;;;;11.49;73.24;102126.28;5090842;27;20389;-82
2021/12/12 09:44:18;;;;;;;0.43;0.43;;;;;;;11.57;72.23;102118.31;5090770;27;20733;-81
2021/12/12 09:52:26;;;;;;;1.65;1.20;;;;;;;11.59;72.34;102120.06;5090998;28;20891;-82
2021/12/12 09:55:21;;;;;;;0.40;0.40;;;;;;;11.57;72.62;102118.31;5070826;28;20502;-82
2021/12/12 09:57:53;;;;;;;0.45;0.45;;;;;;;11.57;72.58;102124.47;5070693;28;20036;-81
2021/12/12 10:00:26;;;;;;;;;;;;;;;11.75;72.30;102130.59;5056769;28;20037;-83
2021/12/12 10:08:52;;;;;;;0.15;0.15;;;;;;;11.69;72.76;102130.63;5090883;28;20434;-83
2021/12/12 10:11:32;;;;;;;0.98;0.93;;;;;;;11.54;72.68;102131.56;5050876;28;20101;-83
2021/12/12 10:14:05;;;;;;;1.48;0.75;;;;;;;11.64;72.22;102117.41;5050670;28;20480;-84
2021/12/12 10:16:38;;;;;;;0.10;0.10;;;;;;;11.64;72.67;102115.59;5050594;28;20122;-84
2021/12/12 10:19:28;;;;;;;0.85;0.40;;;;;;;11.61;73.14;102126.25;5050793;28;20080;-83
2021/12/12 10:27:45;;;;;;;0.35;0.35;;;;;;;11.74;72.62;102121.78;5111788;27;20734;-83
2021/12/12 10:30:21;;;;;;;0.30;0.30;;;;;;;11.76;73.12;102127.97;5111167;28;20058;-83
2021/12/12 10:33:12;;;;;;;0.85;0.40;;;;;;;11.78;72.73;102135.91;5111182;28;20024;-82
2021/12/12 10:38:29;;;;;;;0.10;0.10;;;;;;;11.82;72.46;102129.69;5091111;28;20434;-83
2021/12/12 10:41:03;;;;;;;0.20;0.20;;;;;;;11.88;72.28;102131.44;5051126;28;20128;-82
2021/12/12 10:43:41;;;;;;;0.60;0.43;;;;;;;11.89;72.12;102127.91;5050895;28;20029;-83
2021/12/12 10:46:18;;;;;;;0.60;0.60;;;;;;;11.89;72.82;102139.41;5051031;28;20079;-83
2021/12/12 10:49:01;;;;;;;0.30;0.30;;;;;;;11.90;72.82;102134.97;5050825;28;20045;-83
2021/12/12 10:51:34;;;;;;;1.13;1.13;;;;;;;11.77;72.60;102134.16;5050447;28;20032;-82
2021/12/12 10:59:48;;;;;;;0.20;0.20;;;;;;;11.94;72.55;102126.97;5111732;27;20384;-82
2021/12/12 11:02:17;;;;;;;0.20;0.20;;;;;;;12.00;72.67;102125.22;5111457;28;20027;-82
2021/12/12 11:04:52;;;;;;;0.10;0.10;;;;;;;12.01;72.89;102126.97;5111213;28;20027;-82
2021/12/12 11:07:26;;;;;;;0.30;0.30;;;;;;;12.09;72.41;102130.50;5110962;28;20085;-83
2021/12/12 11:10:18;;;;;;;0.10;0.10;;;;;;;12.09;72.52;102131.34;5111069;28;20028;-79
2021/12/12 11:12:51;;;;;;;0.20;0.20;;;;;;;12.11;73.05;102134.00;5110664;28;20031;-83
2021/12/12 11:18:07;;;;;;;0.20;0.20;;;;;;;12.17;72.85;102136.63;5090794;27;20392;-83
2021/12/12 11:20:40;;;;;;;0.22;0.22;;;;;;;12.16;73.44;102136.63;5054617;28;20519;-82
2021/12/12 11:23:12;;;;;;;0.10;0.10;;;;;;;12.18;73.45;102132.22;5050828;28;20102;-82
2021/12/12 11:25:42;;;;;;;;;;;;;;;12.43;72.19;102131.13;5051638;28;20116;-80
2021/12/12 11:31:05;;;;;;;0.10;0.10;;;;;;;12.34;73.01;102135.66;5090832;27;20172;-87
2021/12/12 11:33:34;;;;;;;0.93;0.90;;;;;;;12.41;72.60;102140.00;5091195;28;20032;-82
2021/12/12 11:36:03;;;;;;;0.20;0.20;;;;;;;12.52;72.72;102138.16;5091311;28;20034;-83
2021/12/12 11:41:33;;;;;;;0.30;0.30;;;;;;;12.48;72.47;102139.09;5069395;28;20037;-82
2021/12/12 11:47:29;;;;;;;0.50;0.50;;;;;;;12.53;72.22;102137.28;5092121;28;20785;-83
2021/12/12 11:50:12;;;;;;;0.10;0.10;;;;;;;12.64;72.35;102144.31;5060014;28;20033;-83
2021/12/12 11:52:57;;;;;;;5.63;2.65;;;;;;;12.68;72.02;102143.38;5051525;28;20445;-84
2021/12/12 12:04:05;;;;;;;0.10;0.10;;;;;;;12.88;72.45;102152.06;5093064;27;20454;-88
2021/12/12 12:06:57;;;;;;;0.20;0.20;;;;;;;12.79;72.93;102157.47;5071550;28;20132;-82
2021/12/12 12:13:08;;;;;;;0.10;0.10;;;;;;;12.89;72.86;102153.81;5091748;27;20764;-81
2021/12/12 12:24:12;;;;;;;3.65;0.75;;;;;;;13.10;72.55;102163.41;5092047;27;20389;-81
2021/12/12 12:27:05;;;;;;;0.20;0.20;;;;;;;13.04;73.17;102165.25;5070962;28;20037;-82
2021/12/12 12:32:55;;;;;;;0.10;0.10;;;;;;;13.18;72.55;102165.09;5071991;28;20394;-82
2021/12/12 12:36:01;;;;;;;0.65;0.65;;;;;;;13.18;71.91;102165.97;5053037;28;20041;-82
2021/12/12 12:42:12;;;;;;;0.10;0.10;;;;;;;13.24;72.44;102159.72;5092310;27;20398;-82
2021/12/12 12:45:18;;;;;;;0.38;0.38;;;;;;;13.28;72.48;102166.75;5071652;28;20110;-81
2021/12/12 12:48:24;;;;;;;1.75;1.65;;;;;;;13.35;72.10;102162.28;5071418;28;20036;-79
2021/12/12 12:51:12;;;;;;;0.10;0.10;;;;;;;13.29;72.26;102167.66;5053930;28;20040;-84
2021/12/12 12:54:19;;;;;;;0.10;0.10;;;;;;;13.32;72.26;102175.59;5051756;28;20036;-82
2021/12/12 12:57:16;;;;;;;0.10;0.10;;;;;;;13.33;72.40;102169.38;5051442;28;20037;-81
2021/12/12 13:00:08;;;;;;;0.10;0.10;;;;;;;13.35;72.12;102173.81;5051372;28;20029;-81
2021/12/12 13:05:50;;;;;;;0.40;0.40;;;;;;;13.33;72.25;102174.72;5092449;27;20389;-80
2021/12/12 13:11:17;;;;;;;0.32;0.32;;;;;;;13.29;72.35;102173.88;5024469;23;20469;-83
2021/12/12 13:14:00;;;;;;;0.60;0.60;;;;;;;13.26;72.86;102180.09;5011574;28;20038;-80
2021/12/12 13:16:46;;;;;;;0.13;0.13;;;;;;;13.32;72.27;102187.16;5011103;28;20026;-83
2021/12/12 13:19:26;;;;;;;0.20;0.20;;;;;;;13.31;72.50;102185.38;5010988;28;20045;-81
2021/12/12 13:22:08;;;;;;;0.10;0.10;;;;;;;13.36;71.97;102193.34;5011212;28;20026;-84
2021/12/12 13:31:02;;;;;;;0.45;0.45;;;;;;;13.35;72.21;102187.09;5076441;28;20504;-81
2021/12/12 13:33:36;;;;;;;1.60;1.52;;;;;;;13.39;72.73;102188.00;5071266;28;20037;-84
2021/12/12 13:42:01;;;;;;;0.20;0.20;;;;;;;13.45;72.53;102187.94;5091919;27;20404;-82
2021/12/12 13:56:17;;;;;;;1.27;1.27;;;;;;;13.58;72.62;102202.88;5057703;28;20844;-85
2021/12/12 14:01:54;;;;;;;0.20;0.20;;;;;;;13.66;73.06;102215.25;5072029;28;20927;-83
2021/12/12 14:07:27;;;;;;;0.32;0.32;;;;;;;13.68;72.73;102216.09;5068692;28;20456;-84
2021/12/12 14:09:55;;;;;;;0.20;0.20;;;;;;;13.68;73.21;102218.75;5048647;28;20116;-84
2021/12/12 14:12:28;;;;;;;1.85;0.63;;;;;;;13.74;72.68;102222.25;5044350;28;20542;-84
2021/12/12 14:15:03;;;;;;;0.93;0.85;;;;;;;13.73;72.97;102227.56;5042049;28;20095;-85
2021/12/12 14:17:55;;;;;;;1.00;1.00;;;;;;;13.77;72.86;102232.00;5042577;28;20041;-83
2021/12/12 14:20:26;;;;;;;0.45;0.45;;;;;;;13.74;73.06;102232.91;5039197;28;20040;-83